Time;durP1;ratioP1;P1;durP2;ratioP2;P2;SDS_P1;SDS_P2;PMS_P1;PMS_P2;Temp;Humidity;BMP_temperature;BMP_pressure;BME280_temperature;BME280_humidity;BME280_pressure;Samples;Min_cycle;Max_cycle;Signal;HPM_P1;HPM_P2
2023/05/14 00:02:05;;;;;;;19.80;9.50;;;13.00;99.90;;;;;;5077993;28;20642;-85
2023/05/14 00:04:31;;;;;;;14.88;9.75;;;13.00;99.90;;;;;;5093938;28;20212;-85
2023/05/14 00:06:57;;;;;;;16.98;9.88;;;13.00;99.90;;;;;;5111411;28;20180;-85
2023/05/14 00:09:23;;;;;;;18.55;10.13;;;13.00;99.90;;;;;;5075962;28;20208;-85
2023/05/14 00:11:49;;;;;;;22.15;10.07;;;12.90;99.90;;;;;;5094781;28;20185;-85
2023/05/14 00:14:15;;;;;;;16.40;10.35;;;12.90;99.90;;;;;;5109993;28;20672;-84
2023/05/14 00:16:40;;;;;;;16.52;10.43;;;12.90;99.90;;;;;;5092366;28;20250;-85
2023/05/14 00:19:06;;;;;;;17.33;10.57;;;12.90;99.90;;;;;;5060358;28;20180;-84
2023/05/14 00:21:32;;;;;;;17.98;10.63;;;12.90;99.90;;;;;;5111288;28;20204;-84
2023/05/14 00:23:58;;;;;;;19.92;10.57;;;12.90;99.90;;;;;;5077099;28;20220;-85
2023/05/14 00:26:23;;;;;;;21.77;10.95;;;12.80;99.90;;;;;;5093333;28;20228;-85
2023/05/14 00:28:49;;;;;;;18.75;10.52;;;12.80;99.90;;;;;;5094830;28;20658;-85
2023/05/14 00:31:15;;;;;;;21.63;10.27;;;12.80;99.90;;;;;;5092160;28;20177;-84
2023/05/14 00:33:43;;;;;;;21.45;10.23;;;12.80;99.90;;;;;;5110648;28;20254;-84
2023/05/14 00:36:09;;;;;;;18.63;10.10;;;12.80;99.90;;;;;;5074177;28;20177;-85
2023/05/14 00:38:35;;;;;;;21.33;10.43;;;12.80;99.90;;;;;;5076989;28;20187;-85
2023/05/14 00:41:01;;;;;;;17.63;9.93;;;12.70;99.90;;;;;;5084090;28;20185;-85
2023/05/14 00:43:27;;;;;;;18.73;9.65;;;12.70;99.90;;;;;;5094183;28;20203;-84
2023/05/14 00:45:54;;;;;;;21.55;10.02;;;12.70;99.90;;;;;;5043351;28;20765;-86
2023/05/14 00:48:22;;;;;;;16.65;9.82;;;12.70;99.90;;;;;;5109452;28;20208;-84
2023/05/14 00:50:49;;;;;;;17.05;10.23;;;12.70;99.90;;;;;;5106129;28;20304;-84
2023/05/14 00:53:17;;;;;;;15.60;10.02;;;12.60;99.90;;;;;;5077635;28;20181;-85
2023/05/14 00:55:45;;;;;;;19.38;9.65;;;12.60;99.90;;;;;;5089953;28;20290;-84
2023/05/14 00:58:12;;;;;;;21.95;9.93;;;12.60;99.90;;;;;;5106163;28;20177;-84
2023/05/14 01:00:39;;;;;;;19.30;9.75;;;12.60;99.90;;;;;;5064197;28;20193;-84
2023/05/14 01:03:06;;;;;;;19.23;9.98;;;12.50;99.90;;;;;;5111388;28;20181;-84
2023/05/14 01:05:42;;;;;;;17.27;10.00;;;12.50;99.90;;;;;;5088050;28;20202;-84
2023/05/14 01:08:14;;;;;;;14.57;9.80;;;12.40;99.90;;;;;;5091132;28;20345;-85
2023/05/14 01:11:02;;;;;;;17.83;9.60;;;12.40;99.90;;;;;;5076798;28;20216;-85
2023/05/14 01:14:02;;;;;;;25.17;9.13;;;12.40;99.90;;;;;;5094326;28;20177;-84
2023/05/14 01:16:32;;;;;;;16.02;9.23;;;12.40;99.90;;;;;;5073902;28;20305;-85
2023/05/14 01:18:59;;;;;;;19.52;9.43;;;12.40;99.90;;;;;;5112244;28;20205;-85
2023/05/14 01:21:37;;;;;;;18.77;9.40;;;12.40;99.90;;;;;;5076446;28;20189;-85
2023/05/14 01:24:03;;;;;;;15.20;8.80;;;12.40;99.90;;;;;;5092955;28;20208;-85
2023/05/14 01:26:30;;;;;;;20.92;9.25;;;12.40;99.90;;;;;;5072576;28;20584;-84
2023/05/14 01:29:09;;;;;;;22.48;9.20;;;12.40;99.90;;;;;;5094437;28;20611;-85
2023/05/14 01:31:39;;;;;;;18.65;9.63;;;12.40;99.90;;;;;;5091078;28;20760;-85
2023/05/14 01:34:07;;;;;;;19.83;9.05;;;12.40;99.90;;;;;;5093764;28;20673;-84
2023/05/14 01:36:34;;;;;;;16.52;8.40;;;12.40;99.90;;;;;;5091593;28;20185;-85
2023/05/14 01:39:00;;;;;;;21.58;8.98;;;12.40;99.90;;;;;;5111304;28;20185;-85
2023/05/14 01:41:27;;;;;;;21.60;8.75;;;12.40;99.90;;;;;;5077569;28;20177;-85
2023/05/14 01:43:53;;;;;;;19.05;8.65;;;12.40;99.90;;;;;;5094271;28;20181;-85
2023/05/14 01:46:19;;;;;;;15.15;8.38;;;12.40;99.90;;;;;;5059241;28;20872;-84
2023/05/14 01:48:45;;;;;;;16.65;9.10;;;12.40;99.90;;;;;;5076358;28;20181;-85
2023/05/14 01:51:13;;;;;;;14.55;8.95;;;12.30;99.90;;;;;;5072528;28;20188;-84
2023/05/14 01:53:39;;;;;;;18.15;9.30;;;12.30;99.90;;;;;;5063011;28;20189;-85
2023/05/14 01:56:05;;;;;;;21.13;9.55;;;12.30;99.90;;;;;;5095675;28;20181;-85
2023/05/14 01:58:31;;;;;;;17.27;10.07;;;12.20;99.90;;;;;;5090041;28;20185;-85
2023/05/14 02:00:57;;;;;;;23.58;10.25;;;12.20;99.90;;;;;;5096335;28;20608;-84
2023/05/14 02:03:23;;;;;;;15.52;10.05;;;12.20;99.90;;;;;;5114300;28;20188;-84
2023/05/14 02:05:49;;;;;;;20.95;9.65;;;12.10;99.90;;;;;;5059023;28;20236;-84
2023/05/14 02:08:15;;;;;;;16.58;9.60;;;12.10;99.90;;;;;;5080083;28;20169;-85
2023/05/14 02:10:44;;;;;;;17.52;9.65;;;12.10;99.90;;;;;;5088006;28;20196;-85
2023/05/14 02:13:09;;;;;;;18.50;10.93;;;12.00;99.90;;;;;;5096085;28;20284;-84
2023/05/14 02:15:35;;;;;;;17.00;10.27;;;12.00;99.90;;;;;;5105351;28;20611;-84
2023/05/14 02:18:01;;;;;;;17.40;9.93;;;12.00;99.90;;;;;;5060545;28;20188;-84
2023/05/14 02:20:27;;;;;;;18.45;10.07;;;12.00;99.90;;;;;;5095685;28;20177;-84
2023/05/14 02:22:53;;;;;;;23.73;10.45;;;12.00;99.90;;;;;;5097003;28;20185;-85
2023/05/14 02:25:19;;;;;;;18.85;11.38;;;11.90;99.90;;;;;;5075414;28;20213;-85
2023/05/14 02:27:45;;;;;;;23.10;11.60;;;11.90;99.90;;;;;;5076303;28;20768;-84
2023/05/14 02:30:11;;;;;;;22.30;11.60;;;11.90;99.90;;;;;;5095243;28;20234;-83
2023/05/14 02:32:37;;;;;;;25.60;12.23;;;11.90;99.90;;;;;;5094048;28;20173;-85
2023/05/14 02:35:03;;;;;;;23.38;12.90;;;11.90;99.90;;;;;;5093543;28;20237;-84
2023/05/14 02:37:29;;;;;;;22.83;12.77;;;11.90;99.90;;;;;;5076506;28;20213;-85
2023/05/14 02:39:55;;;;;;;22.20;12.70;;;11.80;99.90;;;;;;5075590;28;20733;-84
2023/05/14 02:42:21;;;;;;;25.52;13.93;;;11.80;99.90;;;;;;5096043;28;20180;-84
2023/05/14 02:44:47;;;;;;;25.08;14.25;;;11.90;99.90;;;;;;5074374;28;20206;-84
2023/05/14 02:47:13;;;;;;;24.77;14.18;;;11.80;99.90;;;;;;5074568;28;20185;-84
2023/05/14 02:49:39;;;;;;;29.33;14.35;;;11.80;99.90;;;;;;5092886;28;20621;-84
2023/05/14 02:52:05;;;;;;;24.67;14.38;;;11.80;99.90;;;;;;5095651;28;20591;-84
2023/05/14 02:54:31;;;;;;;25.98;14.05;;;11.70;99.90;;;;;;5095633;28;20267;-84
2023/05/14 02:56:56;;;;;;;28.45;14.60;;;11.80;99.90;;;;;;5062624;28;20173;-83
2023/05/14 02:59:23;;;;;;;23.88;13.55;;;11.70;99.90;;;;;;5095586;28;20181;-84
2023/05/14 03:01:49;;;;;;;28.30;15.40;;;11.80;99.90;;;;;;5095443;28;20203;-84
2023/05/14 03:04:15;;;;;;;34.20;15.23;;;11.80;99.90;;;;;;5093875;28;20295;-83
2023/05/14 03:06:41;;;;;;;30.13;14.93;;;11.80;99.90;;;;;;5095351;28;20330;-85
2023/05/14 03:09:07;;;;;;;27.77;14.57;;;11.80;99.90;;;;;;5078647;28;20177;-85
2023/05/14 03:11:33;;;;;;;32.30;15.23;;;11.80;99.90;;;;;;5113621;28;20197;-84
2023/05/14 03:13:59;;;;;;;31.73;15.38;;;11.80;99.90;;;;;;5113563;28;20314;-85
2023/05/14 03:16:24;;;;;;;27.52;14.68;;;11.80;99.90;;;;;;5093710;28;20204;-84
2023/05/14 03:18:50;;;;;;;27.95;15.20;;;11.80;99.90;;;;;;5075785;28;20268;-85
2023/05/14 03:21:16;;;;;;;29.08;15.43;;;11.80;99.90;;;;;;5074561;28;20685;-85
2023/05/14 03:23:42;;;;;;;27.52;14.38;;;11.80;99.90;;;;;;5071303;28;20186;-85
2023/05/14 03:26:08;;;;;;;37.60;15.32;;;11.90;99.90;;;;;;5091545;27;20253;-84
2023/05/14 03:28:33;;;;;;;28.95;14.65;;;11.80;99.90;;;;;;5081923;28;20510;-82
2023/05/14 03:31:00;;;;;;;34.78;14.73;;;11.90;99.90;;;;;;5077695;28;20185;-82
2023/05/14 03:33:25;;;;;;;32.30;15.77;;;11.80;99.90;;;;;;5097488;28;20181;-84
2023/05/14 03:35:51;;;;;;;28.75;15.60;;;11.90;99.90;;;;;;5099594;28;20685;-82
2023/05/14 03:38:17;;;;;;;34.63;15.40;;;11.90;99.90;;;;;;5122503;28;20208;-85
2023/05/14 03:40:45;;;;;;;28.88;15.32;;;11.90;99.90;;;;;;5073849;28;20665;-84
2023/05/14 03:43:11;;;;;;;31.05;16.50;;;11.80;99.90;;;;;;5064675;28;20185;-84
2023/05/14 03:45:38;;;;;;;32.70;16.30;;;11.90;99.90;;;;;;5078429;28;20216;-83
2023/05/14 03:48:05;;;;;;;34.42;16.67;;;11.90;99.90;;;;;;5094115;28;20235;-83
2023/05/14 03:50:31;;;;;;;40.38;17.52;;;11.80;99.90;;;;;;5094345;28;20184;-84
2023/05/14 03:52:57;;;;;;;31.02;18.15;;;11.90;99.90;;;;;;5078589;28;20181;-83
2023/05/14 03:55:23;;;;;;;36.85;18.88;;;11.90;99.90;;;;;;5074120;28;20265;-83
2023/05/14 03:57:49;;;;;;;40.08;19.17;;;11.90;99.90;;;;;;5073802;28;20651;-83
2023/05/14 04:00:15;;;;;;;35.17;18.35;;;11.80;99.90;;;;;;5074557;28;20217;-82
2023/05/14 04:02:44;;;;;;;39.03;17.90;;;11.80;99.90;;;;;;5083168;28;20215;-82
2023/05/14 04:05:10;;;;;;;40.50;18.58;;;11.80;99.90;;;;;;5078086;28;20632;-84
2023/05/14 04:07:36;;;;;;;40.17;17.80;;;11.90;99.90;;;;;;5091664;28;20246;-85
2023/05/14 04:10:05;;;;;;;34.90;17.95;;;11.80;99.90;;;;;;5069603;28;20186;-84
2023/05/14 04:12:33;;;;;;;33.63;16.63;;;11.80;99.90;;;;;;5087872;28;20208;-83
2023/05/14 04:15:00;;;;;;;31.50;15.32;;;11.80;99.90;;;;;;5065471;28;20272;-84
2023/05/14 04:17:26;;;;;;;29.77;14.13;;;11.80;99.90;;;;;;5080106;28;20541;-82
2023/05/14 04:19:52;;;;;;;32.95;13.25;;;11.80;99.90;;;;;;5078379;28;20181;-84
2023/05/14 04:22:18;;;;;;;33.13;13.60;;;11.80;99.90;;;;;;5091058;28;20177;-84
2023/05/14 04:24:43;;;;;;;32.90;13.80;;;11.80;99.90;;;;;;5082928;28;20205;-84
2023/05/14 04:27:09;;;;;;;26.80;13.07;;;11.80;99.90;;;;;;5094309;28;20221;-83
2023/05/14 04:29:35;;;;;;;32.83;13.63;;;11.90;99.90;;;;;;5111889;28;20189;-84
2023/05/14 04:32:01;;;;;;;30.58;13.07;;;11.80;99.90;;;;;;5094646;28;20185;-84
2023/05/14 04:34:26;;;;;;;22.48;12.23;;;11.80;99.90;;;;;;5094237;28;20189;-84
2023/05/14 04:36:52;;;;;;;31.40;13.10;;;11.80;99.90;;;;;;5095023;28;20181;-84
2023/05/14 04:39:18;;;;;;;29.38;13.00;;;11.90;99.90;;;;;;5094052;28;20188;-83
2023/05/14 04:41:44;;;;;;;25.23;13.90;;;11.80;99.90;;;;;;5073808;28;20204;-84
2023/05/14 04:44:11;;;;;;;34.90;13.20;;;11.90;99.90;;;;;;5082355;28;20254;-84
2023/05/14 04:46:37;;;;;;;33.53;12.88;;;11.90;99.90;;;;;;5106905;28;20611;-84
2023/05/14 04:49:03;;;;;;;30.95;13.43;;;11.90;99.90;;;;;;5074396;28;20208;-84
2023/05/14 04:51:29;;;;;;;28.42;13.43;;;11.90;99.90;;;;;;5074996;28;20664;-84
2023/05/14 04:53:55;;;;;;;31.15;13.70;;;11.90;99.90;;;;;;5095223;28;20260;-87
2023/05/14 04:56:21;;;;;;;25.80;12.68;;;11.90;99.90;;;;;;5111836;28;20264;-85
2023/05/14 04:58:47;;;;;;;24.63;13.02;;;11.90;99.90;;;;;;5095074;28;20197;-86
2023/05/14 05:01:13;;;;;;;27.33;11.75;;;12.00;99.90;;;;;;5109917;28;20177;-85
2023/05/14 05:03:39;;;;;;;30.77;12.75;;;12.00;99.90;;;;;;5070172;28;20639;-86
2023/05/14 05:06:05;;;;;;;27.33;12.20;;;12.00;99.90;;;;;;5067169;28;20241;-86
2023/05/14 05:08:31;;;;;;;38.80;13.27;;;12.00;99.90;;;;;;5105353;28;20184;-85
2023/05/14 05:10:57;;;;;;;30.48;12.75;;;12.00;99.90;;;;;;5094016;28;20268;-86
2023/05/14 05:13:22;;;;;;;32.42;12.60;;;12.10;99.90;;;;;;5096941;28;20683;-87
2023/05/14 05:15:48;;;;;;;30.60;12.60;;;12.10;99.90;;;;;;5109486;28;20327;-85
2023/05/14 05:18:14;;;;;;;36.17;12.45;;;12.20;99.90;;;;;;5094196;28;20181;-84
2023/05/14 05:20:40;;;;;;;23.98;12.32;;;12.20;99.90;;;;;;5076781;28;20326;-84
2023/05/14 05:23:05;;;;;;;33.30;12.32;;;12.20;99.90;;;;;;5093575;28;20202;-85
2023/05/14 05:25:31;;;;;;;34.45;13.10;;;12.30;99.90;;;;;;5094100;28;20641;-83
2023/05/14 05:27:57;;;;;;;28.65;12.98;;;12.30;99.90;;;;;;5092784;28;20321;-86
2023/05/14 05:30:23;;;;;;;32.05;13.00;;;12.30;99.90;;;;;;5073725;28;20217;-79
2023/05/14 05:32:49;;;;;;;40.95;13.25;;;12.40;99.90;;;;;;5090364;28;20194;-85
2023/05/14 05:35:14;;;;;;;32.35;13.77;;;12.50;99.90;;;;;;5093523;28;20205;-85
2023/05/14 05:37:44;;;;;;;38.15;14.20;;;12.50;99.90;;;;;;5099115;28;20182;-85
2023/05/14 05:40:12;;;;;;;35.33;13.50;;;12.50;99.90;;;;;;5099250;28;20206;-85
2023/05/14 05:42:39;;;;;;;38.28;14.30;;;12.60;99.90;;;;;;5109138;28;20245;-86
2023/05/14 05:45:05;;;;;;;34.53;14.77;;;12.70;99.90;;;;;;5110932;28;20218;-85
2023/05/14 05:47:31;;;;;;;35.60;13.57;;;12.80;99.90;;;;;;5094568;28;20281;-86
2023/05/14 05:49:57;;;;;;;35.78;14.38;;;12.80;99.90;;;;;;5074659;28;20266;-87
2023/05/14 05:52:23;;;;;;;29.88;14.23;;;12.90;99.90;;;;;;5096657;28;20281;-86
2023/05/14 05:54:48;;;;;;;34.15;14.52;;;12.90;99.90;;;;;;5083667;28;20196;-86
2023/05/14 05:57:14;;;;;;;31.67;13.40;;;13.00;99.90;;;;;;5095928;28;20246;-86
2023/05/14 05:59:40;;;;;;;26.67;13.20;;;13.10;99.90;;;;;;5080757;28;20237;-86
2023/05/14 06:02:06;;;;;;;28.55;12.88;;;13.20;99.90;;;;;;5099470;28;20186;-83
2023/05/14 06:04:32;;;;;;;31.92;13.23;;;13.30;99.90;;;;;;5099223;28;20202;-83
2023/05/14 06:06:57;;;;;;;31.10;12.52;;;13.30;99.90;;;;;;5112354;28;20189;-85
2023/05/14 06:09:23;;;;;;;30.63;12.52;;;13.40;99.90;;;;;;5100416;28;20189;-85
2023/05/14 06:11:49;;;;;;;35.95;12.52;;;13.50;99.90;;;;;;5099779;28;20185;-86
2023/05/14 06:14:15;;;;;;;29.55;11.77;;;13.50;99.90;;;;;;5099519;28;20556;-84
2023/05/14 06:16:43;;;;;;;23.33;10.90;;;13.60;99.90;;;;;;5066128;28;20253;-87
2023/05/14 06:19:09;;;;;;;29.42;11.20;;;13.70;99.90;;;;;;5080983;28;20196;-84
2023/05/14 06:21:35;;;;;;;26.50;10.38;;;13.80;99.90;;;;;;5085815;28;20560;-83
2023/05/14 06:24:01;;;;;;;28.65;10.48;;;13.90;99.90;;;;;;5079631;28;20192;-84
2023/05/14 06:26:27;;;;;;;27.20;9.52;;;14.00;99.90;;;;;;5079526;28;20182;-86
2023/05/14 06:28:53;;;;;;;22.13;10.77;;;14.20;99.90;;;;;;5097736;28;20268;-86
2023/05/14 06:31:19;;;;;;;20.90;9.18;;;14.20;99.90;;;;;;5102516;28;20223;-85
2023/05/14 06:33:45;;;;;;;26.70;9.52;;;14.30;99.90;;;;;;5070148;28;20189;-85
2023/05/14 06:36:10;;;;;;;22.27;9.40;;;14.30;99.90;;;;;;5123160;28;20189;-84
2023/05/14 06:38:36;;;;;;;25.13;9.27;;;14.40;99.90;;;;;;5086622;28;20271;-79
2023/05/14 06:41:02;;;;;;;28.33;9.15;;;14.40;99.90;;;;;;5100894;28;20181;-81
2023/05/14 06:43:28;;;;;;;17.52;8.57;;;14.50;99.90;;;;;;5126862;28;20189;-84
2023/05/14 06:45:54;;;;;;;19.25;8.60;;;14.50;99.90;;;;;;5126684;28;20645;-82
2023/05/14 06:48:20;;;;;;;27.65;8.43;;;14.60;99.90;;;;;;5124441;28;20192;-88
2023/05/14 06:50:47;;;;;;;20.65;8.93;;;14.70;99.90;;;;;;5095234;28;20249;-84
2023/05/14 06:53:14;;;;;;;24.13;8.63;;;14.80;99.90;;;;;;5111293;28;20189;-81
2023/05/14 06:55:40;;;;;;;16.25;7.90;;;14.80;99.90;;;;;;5104447;28;20272;-82
2023/05/14 06:58:07;;;;;;;18.55;8.18;;;14.90;99.90;;;;;;5088870;28;20188;-86
2023/05/14 07:00:33;;;;;;;17.63;8.40;;;14.90;99.90;;;;;;5078322;28;20218;-83
2023/05/14 07:02:58;;;;;;;16.65;7.82;;;15.00;99.90;;;;;;5119456;28;20201;-82
2023/05/14 07:05:25;;;;;;;24.15;9.05;;;15.00;99.90;;;;;;5104415;28;20224;-86
2023/05/14 07:07:51;;;;;;;16.90;7.97;;;15.10;99.90;;;;;;5086064;28;20209;-86
2023/05/14 07:10:17;;;;;;;19.60;8.55;;;15.20;99.90;;;;;;5105907;28;20184;-86
2023/05/14 07:12:43;;;;;;;22.55;8.63;;;15.20;99.90;;;;;;5104706;28;20191;-86
2023/05/14 07:15:09;;;;;;;17.73;9.05;;;15.30;99.90;;;;;;5089255;28;20615;-85
2023/05/14 07:17:35;;;;;;;19.92;8.93;;;15.30;99.90;;;;;;5086900;28;20198;-85
2023/05/14 07:20:01;;;;;;;23.50;8.40;;;15.50;99.90;;;;;;5099663;28;20598;-85
2023/05/14 07:22:27;;;;;;;27.25;8.90;;;15.60;99.90;;;;;;5080590;28;20698;-86
2023/05/14 07:24:52;;;;;;;20.33;8.93;;;15.60;99.90;;;;;;5083696;28;20266;-85
2023/05/14 07:27:18;;;;;;;17.30;8.70;;;15.70;99.90;;;;;;5102546;28;20225;-86
2023/05/14 07:29:44;;;;;;;20.17;9.20;;;15.80;99.90;;;;;;5107749;28;20185;-85
2023/05/14 07:32:10;;;;;;;21.05;8.90;;;15.90;99.90;;;;;;5119465;28;20577;-85
2023/05/14 07:34:36;;;;;;;17.58;9.10;;;15.90;99.90;;;;;;5105889;28;20654;-82
2023/05/14 07:37:02;;;;;;;14.98;7.80;;;16.00;99.90;;;;;;5098736;28;20595;-86
2023/05/14 07:39:28;;;;;;;15.35;8.60;;;16.00;99.90;;;;;;5099949;28;20196;-85
2023/05/14 07:41:54;;;;;;;18.17;8.48;;;16.10;99.90;;;;;;5117500;28;20630;-87
2023/05/14 07:44:20;;;;;;;15.32;8.32;;;16.20;99.90;;;;;;5106804;28;20208;-82
2023/05/14 07:46:46;;;;;;;14.27;8.68;;;16.30;99.90;;;;;;5087656;28;20253;-85
2023/05/14 07:49:12;;;;;;;16.80;8.40;;;16.30;99.90;;;;;;5104813;28;20181;-85
2023/05/14 07:51:44;;;;;;;16.25;9.57;;;16.30;99.90;;;;;;5106260;28;20185;-89
2023/05/14 07:54:10;;;;;;;19.30;9.02;;;16.30;99.90;;;;;;5078843;28;20190;-89
2023/05/14 07:56:36;;;;;;;20.17;8.63;;;16.30;99.90;;;;;;5098588;28;20209;-89
2023/05/14 07:59:02;;;;;;;16.60;8.43;;;16.30;99.90;;;;;;5101635;28;20190;-80
2023/05/14 08:01:28;;;;;;;16.48;8.38;;;16.30;99.90;;;;;;5071608;28;20209;-84
2023/05/14 08:03:53;;;;;;;16.52;8.85;;;16.30;99.90;;;;;;5104923;28;20177;-84
2023/05/14 08:06:20;;;;;;;21.05;8.88;;;16.40;99.90;;;;;;5092987;28;20245;-83
2023/05/14 08:08:46;;;;;;;16.27;9.02;;;16.40;99.90;;;;;;5093315;28;20568;-84
2023/05/14 08:11:12;;;;;;;23.23;9.20;;;16.40;99.90;;;;;;5088655;28;20697;-83
2023/05/14 08:13:38;;;;;;;19.73;8.45;;;16.40;99.90;;;;;;5116222;28;20601;-85
2023/05/14 08:16:04;;;;;;;18.38;8.52;;;16.50;99.90;;;;;;5118624;28;20185;-84
2023/05/14 08:18:30;;;;;;;21.30;9.18;;;16.50;99.90;;;;;;5116133;28;20192;-83
2023/05/14 08:20:56;;;;;;;15.10;8.55;;;16.60;99.90;;;;;;5102993;28;20178;-85
2023/05/14 08:23:22;;;;;;;22.38;8.85;;;16.70;99.90;;;;;;5122010;28;20562;-87
2023/05/14 08:25:48;;;;;;;20.45;9.02;;;16.70;99.90;;;;;;5081449;28;20296;-86
2023/05/14 08:28:15;;;;;;;21.38;8.88;;;16.90;99.90;;;;;;5091021;28;20237;-86
2023/05/14 08:30:44;;;;;;;19.70;7.97;;;16.90;99.90;;;;;;5098435;28;20174;-83
2023/05/14 08:33:10;;;;;;;21.88;7.57;;;17.00;99.90;;;;;;5099629;28;20184;-86
2023/05/14 08:35:36;;;;;;;20.00;7.80;;;17.20;99.90;;;;;;5099458;28;20544;-87
2023/05/14 08:38:02;;;;;;;16.27;7.38;;;17.20;99.90;;;;;;5099155;28;20643;-83
2023/05/14 08:40:28;;;;;;;18.80;8.38;;;17.30;99.90;;;;;;5083189;28;20186;-85
2023/05/14 08:42:56;;;;;;;17.85;7.68;;;17.40;99.90;;;;;;5098202;28;20241;-84
2023/05/14 08:45:33;;;;;;;17.50;6.93;;;17.50;99.90;;;;;;5082524;28;20318;-85
2023/05/14 08:48:04;;;;;;;22.75;7.50;;;17.50;99.90;;;;;;5103389;28;20173;-86
2023/05/14 08:50:30;;;;;;;22.92;8.52;;;17.60;99.90;;;;;;5083287;28;20247;-86
2023/05/14 08:52:56;;;;;;;16.60;8.10;;;17.70;99.90;;;;;;5079507;28;20204;-86
2023/05/14 08:55:22;;;;;;;13.40;7.82;;;17.70;99.90;;;;;;5092485;28;20189;-85
2023/05/14 08:57:48;;;;;;;17.55;7.53;;;17.70;99.90;;;;;;5053130;28;20187;-85
2023/05/14 09:00:14;;;;;;;20.27;7.80;;;17.80;99.90;;;;;;5098487;28;20186;-84
2023/05/14 09:02:43;;;;;;;18.75;7.43;;;17.90;99.90;;;;;;5080306;28;20197;-85
2023/05/14 09:05:09;;;;;;;20.67;7.97;;;18.10;99.90;;;;;;5094470;28;20268;-85
2023/05/14 09:07:35;;;;;;;17.20;8.35;;;18.20;99.90;;;;;;5066438;28;20212;-87
2023/05/14 09:10:02;;;;;;;17.90;8.40;;;18.40;99.90;;;;;;5099189;28;20681;-85
2023/05/14 09:12:28;;;;;;;16.70;7.88;;;18.50;99.90;;;;;;5083745;28;20258;-85
2023/05/14 09:14:54;;;;;;;19.13;7.93;;;18.60;99.90;;;;;;5097804;28;20669;-85
2023/05/14 09:17:20;;;;;;;19.42;8.25;;;18.70;99.90;;;;;;5097009;28;20178;-86
2023/05/14 09:19:48;;;;;;;17.67;8.93;;;18.80;99.90;;;;;;5095196;28;20273;-84
2023/05/14 09:22:16;;;;;;;17.35;7.95;;;18.90;99.90;;;;;;5080630;28;20186;-86
2023/05/14 09:24:45;;;;;;;16.05;7.45;;;18.90;99.90;;;;;;5096082;28;20205;-85
2023/05/14 09:27:20;;;;;;;15.18;8.07;;;19.00;99.90;;;;;;5096284;28;20221;-87
2023/05/14 09:29:47;;;;;;;15.50;7.63;;;19.10;99.90;;;;;;5098489;28;20276;-87
2023/05/14 09:32:13;;;;;;;17.38;7.90;;;19.20;99.90;;;;;;5101562;28;20182;-87
2023/05/14 09:34:39;;;;;;;16.20;8.05;;;19.40;99.90;;;;;;5083083;28;20201;-87
2023/05/14 09:37:07;;;;;;;14.88;7.22;;;19.50;99.90;;;;;;5086427;28;20541;-86
2023/05/14 09:39:37;;;;;;;20.08;8.00;;;19.50;99.90;;;;;;5100596;28;20182;-87
2023/05/14 09:42:03;;;;;;;19.20;8.25;;;19.70;99.90;;;;;;5097490;28;20265;-88
2023/05/14 09:44:29;;;;;;;20.13;7.93;;;19.80;99.90;;;;;;5078726;28;20205;-88
2023/05/14 09:46:55;;;;;;;16.42;7.82;;;19.90;99.90;;;;;;5101958;28;20181;-87
2023/05/14 09:49:21;;;;;;;17.48;7.53;;;20.00;99.90;;;;;;5099490;28;20177;-86
2023/05/14 09:51:50;;;;;;;16.25;8.50;;;20.10;99.90;;;;;;5081691;28;20207;-84
2023/05/14 09:54:16;;;;;;;15.93;8.18;;;20.30;99.90;;;;;;5100317;28;20186;-88
2023/05/14 09:56:42;;;;;;;13.82;7.82;;;20.40;99.90;;;;;;5100524;28;20178;-86
2023/05/14 09:59:08;;;;;;;16.88;8.32;;;20.40;99.90;;;;;;5100031;28;20189;-87
2023/05/14 10:01:36;;;;;;;16.67;8.02;;;20.40;99.90;;;;;;5102157;28;20178;-86
2023/05/14 10:04:03;;;;;;;17.33;9.18;;;20.50;99.90;;;;;;5083700;28;20193;-86
2023/05/14 10:06:32;;;;;;;14.77;7.72;;;20.40;99.90;;;;;;5102707;28;20186;-87
2023/05/14 10:09:01;;;;;;;15.00;8.70;;;20.40;99.90;;;;;;5097078;28;20611;-85
2023/05/14 10:11:31;;;;;;;18.52;9.13;;;20.40;99.90;;;;;;5096007;28;20188;-86
2023/05/14 10:14:03;;;;;;;18.45;7.80;;;20.50;99.90;;;;;;5096724;28;20182;-88
2023/05/14 10:16:45;;;;;;;19.45;8.68;;;20.60;99.90;;;;;;5096651;28;20178;-87
2023/05/14 10:19:14;;;;;;;18.90;8.05;;;20.70;99.90;;;;;;5076782;28;20186;-86
2023/05/14 10:21:43;;;;;;;14.10;7.97;;;20.70;99.90;;;;;;5086782;28;20189;-88
2023/05/14 10:24:09;;;;;;;16.02;9.15;;;20.80;99.90;;;;;;5098498;28;20181;-86
2023/05/14 10:26:38;;;;;;;17.35;8.60;;;20.90;99.90;;;;;;5082244;28;20215;-89
2023/05/14 10:29:09;;;;;;;18.38;8.10;;;20.90;99.90;;;;;;5102499;28;20261;-88
2023/05/14 10:31:54;;;;;;;18.10;8.48;;;21.00;99.90;;;;;;5103879;28;20192;-85
2023/05/14 10:34:44;;;;;;;20.70;9.10;;;21.00;99.90;;;;;;5094698;28;20176;-88
2023/05/14 10:37:15;;;;;;;17.60;9.18;;;21.10;99.90;;;;;;5107847;28;20218;-86
2023/05/14 10:39:49;;;;;;;11.75;7.82;;;21.20;99.90;;;;;;5129530;28;20605;-88
2023/05/14 10:42:29;;;;;;;15.77;8.20;;;21.30;99.90;;;;;;5100509;28;20250;-84
2023/05/14 10:45:00;;;;;;;12.55;8.18;;;21.30;99.90;;;;;;5119057;28;20256;-89
2023/05/14 10:47:28;;;;;;;12.80;8.48;;;21.30;99.90;;;;;;5104817;28;20177;-87
2023/05/14 10:49:58;;;;;;;15.18;8.27;;;21.30;99.90;;;;;;5084233;28;20314;-88
2023/05/14 10:52:28;;;;;;;13.32;9.02;;;21.40;99.90;;;;;;5061290;28;20579;-89
2023/05/14 10:55:02;;;;;;;16.48;8.45;;;21.40;99.90;;;;;;5101976;28;20185;-87
2023/05/14 10:57:31;;;;;;;13.23;8.88;;;21.50;99.90;;;;;;5107459;28;20265;-89
2023/05/14 11:00:01;;;;;;;13.35;8.35;;;21.60;99.90;;;;;;5086179;28;20216;-86
2023/05/14 11:02:39;;;;;;;16.80;9.70;;;21.60;99.90;;;;;;5100928;28;20190;-89
2023/05/14 11:05:16;;;;;;;13.73;8.85;;;21.70;99.90;;;;;;5098989;28;21816;-88
2023/05/14 11:07:44;;;;;;;14.15;9.38;;;21.70;99.90;;;;;;5121127;28;20173;-88
2023/05/14 11:10:15;;;;;;;12.63;9.43;;;21.80;99.90;;;;;;5122338;28;20185;-89
2023/05/14 11:12:43;;;;;;;13.35;9.05;;;21.90;99.90;;;;;;5106876;28;20173;-88
2023/05/14 11:15:12;;;;;;;11.73;8.98;;;21.90;99.90;;;;;;5123408;28;20214;-89
2023/05/14 11:17:40;;;;;;;17.60;8.82;;;22.00;99.60;;;;;;5103195;28;20185;-89
2023/05/14 11:20:07;;;;;;;19.63;9.18;;;22.10;99.20;;;;;;5080215;28;20206;-88
2023/05/14 11:22:34;;;;;;;19.85;10.98;;;22.20;98.70;;;;;;5109081;28;20229;-90
2023/05/14 11:25:00;;;;;;;14.88;10.30;;;22.20;98.40;;;;;;5127697;28;20217;-87
2023/05/14 11:27:26;;;;;;;20.88;10.40;;;22.20;98.50;;;;;;5113052;28;20232;-90
2023/05/14 11:29:54;;;;;;;18.92;9.88;;;22.20;98.50;;;;;;5104081;28;20239;-89
2023/05/14 11:32:20;;;;;;;15.52;10.98;;;22.30;98.30;;;;;;5106505;28;20245;-88
2023/05/14 11:34:46;;;;;;;14.48;9.57;;;22.30;97.90;;;;;;5080268;28;20198;-90
2023/05/14 11:37:14;;;;;;;12.38;9.45;;;22.20;97.50;;;;;;5066484;28;20251;-90
2023/05/14 11:39:50;;;;;;;15.40;10.98;;;22.30;97.30;;;;;;5080289;28;20598;-89
2023/05/14 11:42:18;;;;;;;16.20;9.40;;;22.30;97.10;;;;;;5074585;28;20193;-91
2023/05/14 11:44:49;;;;;;;15.10;9.70;;;22.30;96.80;;;;;;5106075;28;20205;-89
2023/05/14 11:47:17;;;;;;;20.08;9.20;;;22.30;96.50;;;;;;5087350;28;20687;-90
2023/05/14 11:49:43;;;;;;;12.13;8.65;;;22.30;96.20;;;;;;5096582;28;20632;-90
2023/05/14 11:52:11;;;;;;;15.25;9.90;;;22.40;96.00;;;;;;5076470;28;20245;-90
2023/05/14 11:54:37;;;;;;;14.85;8.70;;;22.50;95.50;;;;;;5081734;28;20194;-88
2023/05/14 11:57:11;;;;;;;13.63;8.43;;;22.50;94.90;;;;;;5105125;28;20182;-93
2023/05/14 11:59:37;;;;;;;12.68;8.48;;;22.60;94.50;;;;;;5105819;28;20176;-90
2023/05/14 12:02:04;;;;;;;9.98;6.80;;;22.60;94.20;;;;;;5077348;28;20190;-90
2023/05/14 12:04:31;;;;;;;10.38;6.30;;;22.70;93.30;;;;;;5063130;28;20228;-88
2023/05/14 12:07:01;;;;;;;12.57;6.03;;;22.80;92.50;;;;;;5081386;28;20246;-90
2023/05/14 12:09:27;;;;;;;11.40;5.70;;;22.80;91.30;;;;;;5068014;28;20195;-90
2023/05/14 12:11:53;;;;;;;14.63;5.93;;;22.90;90.40;;;;;;5079005;28;20186;-91
2023/05/14 12:14:21;;;;;;;14.45;5.57;;;22.90;89.10;;;;;;5075623;28;20184;-87
2023/05/14 12:16:48;;;;;;;8.45;4.85;;;23.00;85.10;;;;;;5071495;28;20183;-86
2023/05/14 12:19:15;;;;;;;11.82;4.90;;;23.00;82.00;;;;;;5028645;28;20190;-85
2023/05/14 12:21:46;;;;;;;7.53;4.47;;;23.00;80.60;;;;;;5070044;28;20197;-87
2023/05/14 12:24:14;;;;;;;8.68;4.43;;;23.10;78.40;;;;;;5062603;28;20274;-91
2023/05/14 12:26:49;;;;;;;6.72;4.55;;;23.10;75.20;;;;;;5074240;28;20185;-89
2023/05/14 12:29:15;;;;;;;7.13;4.10;;;23.20;72.70;;;;;;5117237;28;20196;-87
2023/05/14 12:31:48;;;;;;;9.15;4.07;;;23.30;71.90;;;;;;5105739;28;20183;-89
2023/05/14 12:34:15;;;;;;;8.65;4.78;;;23.30;69.30;;;;;;5127331;28;20196;-86